Time;durP1;ratioP1;P1;durP2;ratioP2;P2;SDS_P1;SDS_P2;PMS_P1;PMS_P2;Temp;Humidity;BMP_temperature;BMP_pressure;BME280_temperature;BME280_humidity;BME280_pressure;Samples;Min_cycle;Max_cycle;Signal;HPM_P1;HPM_P2
2023/03/13 00:01:36;;;;;;;12.80;7.73;;;5.10;47.30;;;;;;5024961;28;20487;-55
2023/03/13 00:04:03;;;;;;;7.87;6.73;;;5.10;46.80;;;;;;5030229;28;20463;-55
2023/03/13 00:06:32;;;;;;;14.97;7.77;;;5.10;46.10;;;;;;5027881;28;20892;-57
2023/03/13 00:09:01;;;;;;;10.40;7.17;;;5.20;46.40;;;;;;5027879;28;20470;-55
2023/03/13 00:11:28;;;;;;;12.47;7.43;;;5.10;45.00;;;;;;5018009;28;20487;-55
2023/03/13 00:13:56;;;;;;;12.07;6.40;;;5.10;44.80;;;;;;5030447;28;20463;-55
2023/03/13 00:16:22;;;;;;;8.23;6.93;;;5.20;44.60;;;;;;5025209;28;20509;-55
2023/03/13 00:18:51;;;;;;;10.23;6.67;;;5.20;44.20;;;;;;5028810;28;20934;-57
2023/03/13 00:21:19;;;;;;;10.57;6.37;;;5.20;43.70;;;;;;5027253;28;20576;-55
2023/03/13 00:23:46;;;;;;;11.60;6.33;;;5.30;42.30;;;;;;5024820;28;20496;-55
2023/03/13 00:26:17;;;;;;;11.43;6.87;;;5.30;42.00;;;;;;5023523;28;20881;-57
2023/03/13 00:28:44;;;;;;;8.60;6.50;;;5.30;41.00;;;;;;5024420;28;20543;-55
2023/03/13 00:31:13;;;;;;;12.73;7.57;;;5.30;40.30;;;;;;5027088;28;20479;-55
2023/03/13 00:33:41;;;;;;;14.13;6.80;;;5.30;39.30;;;;;;5025532;28;20522;-56
2023/03/13 00:36:09;;;;;;;20.63;6.73;;;5.30;38.50;;;;;;5026658;28;20503;-56
2023/03/13 00:38:36;;;;;;;18.60;6.50;;;5.40;37.30;;;;;;5025450;28;20496;-56
2023/03/13 00:41:05;;;;;;;7.20;5.87;;;5.40;36.60;;;;;;5027759;28;21098;-58
2023/03/13 00:43:34;;;;;;;11.73;6.40;;;5.40;35.60;;;;;;5028869;28;20506;-55
2023/03/13 00:46:00;;;;;;;18.07;7.00;;;5.40;35.30;;;;;;5027502;28;20463;-56
2023/03/13 00:48:27;;;;;;;14.17;6.40;;;5.40;33.10;;;;;;5030392;28;20522;-56
2023/03/13 00:50:54;;;;;;;11.67;5.87;;;5.40;33.00;;;;;;5021319;28;20499;-58
2023/03/13 00:53:21;;;;;;;13.70;6.47;;;5.40;32.80;;;;;;5033391;28;20526;-55
2023/03/13 00:55:52;;;;;;;16.77;6.03;;;5.50;32.20;;;;;;5032862;28;20517;-56
2023/03/13 00:58:19;;;;;;;15.73;5.53;;;5.50;31.70;;;;;;5032897;28;20793;-57
2023/03/13 01:00:47;;;;;;;10.67;6.03;;;5.50;31.50;;;;;;5027610;28;20523;-56
2023/03/13 01:03:14;;;;;;;12.27;6.10;;;5.60;31.00;;;;;;5024605;28;20452;-57
2023/03/13 01:05:40;;;;;;;12.40;6.97;;;5.60;29.80;;;;;;5025407;28;20553;-55
2023/03/13 01:08:07;;;;;;;12.70;6.50;;;5.60;28.50;;;;;;5031473;28;20608;-54
2023/03/13 01:10:34;;;;;;;16.23;7.10;;;5.60;27.60;;;;;;5031628;28;20848;-56
2023/03/13 01:13:03;;;;;;;10.43;5.60;;;5.60;26.70;;;;;;5033671;28;20467;-57
2023/03/13 01:15:30;;;;;;;16.13;6.73;;;5.70;26.50;;;;;;5030158;28;20462;-56
2023/03/13 01:17:58;;;;;;;15.60;6.57;;;5.70;25.90;;;;;;5029985;28;20459;-57
2023/03/13 01:20:24;;;;;;;15.07;6.37;;;5.70;25.70;;;;;;5023114;28;20523;-56
2023/03/13 01:22:51;;;;;;;14.43;6.33;;;5.70;24.40;;;;;;5031719;28;20549;-56
2023/03/13 01:25:17;;;;;;;18.30;6.93;;;5.80;24.00;;;;;;5030111;28;20517;-57
2023/03/13 01:27:44;;;;;;;12.90;6.20;;;5.80;23.70;;;;;;5032538;28;20517;-56
2023/03/13 01:30:12;;;;;;;15.77;5.97;;;5.80;23.10;;;;;;5030559;28;20514;-57
2023/03/13 01:32:38;;;;;;;17.33;6.63;;;5.80;22.70;;;;;;5030921;28;21035;-56
2023/03/13 01:35:07;;;;;;;13.90;5.83;;;5.80;21.60;;;;;;5026253;28;21080;-56
2023/03/13 01:37:33;;;;;;;22.00;6.30;;;5.90;21.40;;;;;;5030600;28;20460;-57
2023/03/13 01:40:00;;;;;;;12.30;6.33;;;5.90;20.40;;;;;;5030660;28;20901;-56
2023/03/13 01:42:26;;;;;;;20.57;7.37;;;6.00;75.80;;;;;;5029116;28;20829;-56
2023/03/13 01:44:56;;;;;;;14.90;5.57;;;6.00;85.70;;;;;;5032057;28;21028;-56
2023/03/13 01:47:23;;;;;;;15.10;5.90;;;5.90;94.90;;;;;;5031914;28;20969;-56
2023/03/13 01:49:52;;;;;;;12.17;6.63;;;6.00;99.90;;;;;;5029000;28;21346;-56
2023/03/13 01:52:23;;;;;;;13.90;5.37;;;6.00;99.90;;;;;;5032505;28;20528;-56
2023/03/13 01:54:54;;;;;;;17.53;5.97;;;6.00;99.90;;;;;;5025205;28;20464;-56
2023/03/13 01:57:24;;;;;;;15.60;5.40;;;6.00;99.90;;;;;;5029171;28;20875;-57
2023/03/13 01:59:53;;;;;;;15.87;6.70;;;6.10;99.90;;;;;;5026495;28;20518;-56
2023/03/13 02:02:22;;;;;;;16.07;6.37;;;6.10;99.90;;;;;;5023907;28;20443;-57
2023/03/13 02:04:54;;;;;;;17.00;5.00;;;6.10;99.90;;;;;;5024755;28;20819;-56
2023/03/13 02:07:25;;;;;;;16.20;6.40;;;6.20;99.90;;;;;;5027109;28;20463;-56
2023/03/13 02:09:54;;;;;;;18.20;6.10;;;6.20;99.90;;;;;;5050783;23;20521;-51
2023/03/13 02:12:43;;;;;;;20.30;6.20;;;6.20;99.90;;;;;;5046711;28;20466;-53
2023/03/13 02:15:13;;;;;;;17.20;6.37;;;6.20;99.90;;;;;;5047392;28;21255;-52
2023/03/13 02:17:42;;;;;;;18.33;5.77;;;6.10;99.90;;;;;;5053446;28;20489;-53
2023/03/13 02:20:11;;;;;;;17.37;6.80;;;6.20;99.90;;;;;;5030594;28;20487;-52
2023/03/13 02:22:43;;;;;;;21.60;5.90;;;6.20;99.90;;;;;;5029073;28;20545;-52
2023/03/13 02:25:19;;;;;;;14.67;4.93;;;6.20;99.90;;;;;;5031362;28;20495;-53
2023/03/13 02:27:50;;;;;;;24.47;5.93;;;6.20;99.90;;;;;;5029069;28;20534;-53
2023/03/13 02:30:17;;;;;;;15.43;4.90;;;6.20;99.90;;;;;;5028880;28;20544;-53
2023/03/13 02:32:45;;;;;;;17.27;6.10;;;6.30;99.90;;;;;;5027310;28;20509;-52
2023/03/13 02:35:14;;;;;;;16.07;6.20;;;6.20;99.90;;;;;;5031273;28;20471;-53
2023/03/13 02:37:42;;;;;;;16.70;5.00;;;6.30;99.90;;;;;;5029909;28;20502;-53
2023/03/13 02:40:12;;;;;;;7.90;4.17;;;6.30;99.90;;;;;;5028986;28;20564;-53
2023/03/13 02:42:42;;;;;;;13.53;5.47;;;6.30;99.90;;;;;;5031324;28;21038;-53
2023/03/13 02:45:13;;;;;;;18.67;5.30;;;6.40;99.90;;;;;;5027111;28;20984;-53
2023/03/13 02:47:39;;;;;;;15.47;5.40;;;6.40;99.90;;;;;;5027339;28;20972;-53
2023/03/13 02:50:06;;;;;;;19.30;4.90;;;6.40;99.90;;;;;;5032354;28;20471;-53
2023/03/13 02:52:38;;;;;;;17.87;4.60;;;6.40;89.90;;;;;;5027902;28;20504;-53
2023/03/13 02:55:09;;;;;;;23.97;6.30;;;6.50;80.50;;;;;;5035677;28;20752;-53
2023/03/13 02:57:36;;;;;;;13.30;5.10;;;6.50;20.50;;;;;;5025411;28;20463;-53
2023/03/13 03:00:05;;;;;;;21.37;5.17;;;6.50;21.90;;;;;;5031729;28;20487;-53
2023/03/13 03:02:33;;;;;;;20.27;5.23;;;6.50;22.60;;;;;;5028889;28;20460;-53
2023/03/13 03:04:59;;;;;;;24.13;5.63;;;6.50;24.80;;;;;;5031431;28;20471;-53
2023/03/13 03:07:26;;;;;;;16.17;4.43;;;6.50;26.10;;;;;;5030385;28;20993;-53
2023/03/13 03:09:53;;;;;;;18.87;5.37;;;6.60;27.50;;;;;;5026415;28;20499;-53
2023/03/13 03:12:19;;;;;;;13.00;4.80;;;6.60;27.60;;;;;;5025892;28;22131;-53
2023/03/13 03:14:46;;;;;;;20.87;4.77;;;6.60;27.50;;;;;;5028599;28;20867;-53
2023/03/13 03:17:13;;;;;;;14.37;5.17;;;6.60;26.30;;;;;;5031432;28;20483;-53
2023/03/13 03:19:40;;;;;;;19.40;5.97;;;6.60;25.60;;;;;;5030468;28;20518;-53
2023/03/13 03:22:07;;;;;;;17.43;5.10;;;6.60;26.20;;;;;;5031443;28;20960;-52
2023/03/13 03:24:34;;;;;;;14.23;6.00;;;6.60;25.20;;;;;;5031321;28;20549;-53
2023/03/13 03:27:00;;;;;;;21.00;5.47;;;6.60;23.70;;;;;;5030754;28;20471;-53
2023/03/13 03:29:27;;;;;;;20.20;6.17;;;6.60;23.90;;;;;;5030459;28;20563;-53
2023/03/13 03:31:54;;;;;;;25.93;6.90;;;6.60;22.50;;;;;;5029564;28;20463;-53
2023/03/13 03:34:21;;;;;;;15.73;5.03;;;6.60;21.70;;;;;;5026401;28;20946;-53
2023/03/13 03:36:49;;;;;;;13.67;4.40;;;6.60;22.00;;;;;;5029467;28;20973;-54
2023/03/13 03:39:15;;;;;;;26.00;5.27;;;6.60;22.10;;;;;;5028417;28;20854;-53
2023/03/13 03:41:42;;;;;;;18.47;5.20;;;6.60;22.30;;;;;;5030204;28;20479;-53
2023/03/13 03:44:08;;;;;;;15.67;5.30;;;6.60;21.10;;;;;;5030895;28;20501;-53
2023/03/13 03:46:35;;;;;;;13.90;5.27;;;6.60;21.50;;;;;;5025170;28;20541;-53
2023/03/13 03:49:02;;;;;;;14.63;4.20;;;6.60;21.50;;;;;;5026827;28;20551;-53
2023/03/13 03:51:28;;;;;;;12.00;4.57;;;6.70;73.00;;;;;;5028605;28;20455;-53
2023/03/13 03:53:56;;;;;;;15.30;5.60;;;6.60;20.80;;;;;;5025957;28;20487;-53
2023/03/13 03:56:23;;;;;;;14.27;4.90;;;6.60;75.40;;;;;;5025945;28;20834;-54
2023/03/13 03:58:49;;;;;;;27.57;5.60;;;6.60;78.20;;;;;;5022448;28;20509;-53
2023/03/13 04:01:16;;;;;;;14.17;5.00;;;6.70;90.50;;;;;;5029305;28;20523;-53
2023/03/13 04:03:42;;;;;;;12.60;4.83;;;6.70;89.30;;;;;;5030039;28;20503;-54
2023/03/13 04:06:09;;;;;;;14.07;4.30;;;6.70;87.90;;;;;;5026902;28;20525;-53
2023/03/13 04:08:36;;;;;;;18.23;5.60;;;6.70;88.70;;;;;;5030742;28;20487;-53
2023/03/13 04:11:04;;;;;;;16.13;5.37;;;6.70;86.80;;;;;;5029469;28;20502;-53
2023/03/13 04:13:31;;;;;;;16.27;4.70;;;6.70;83.00;;;;;;5031070;28;20513;-54
2023/03/13 04:15:57;;;;;;;18.13;4.90;;;6.70;85.30;;;;;;5029491;28;20498;-54
2023/03/13 04:18:24;;;;;;;18.37;4.40;;;6.70;86.80;;;;;;5030444;28;20482;-52
2023/03/13 04:20:51;;;;;;;19.40;5.80;;;6.70;96.70;;;;;;5028710;28;20510;-52
2023/03/13 04:23:17;;;;;;;16.80;4.80;;;6.70;84.20;;;;;;5031269;28;20451;-53
2023/03/13 04:25:44;;;;;;;15.10;4.87;;;6.70;94.70;;;;;;5030477;28;21130;-53
2023/03/13 04:28:12;;;;;;;17.70;4.60;;;6.70;95.00;;;;;;5034709;28;20483;-53
2023/03/13 04:30:38;;;;;;;20.40;5.67;;;6.70;99.90;;;;;;5034551;28;20487;-54
2023/03/13 04:33:05;;;;;;;14.33;5.40;;;6.70;99.90;;;;;;5033641;28;20486;-53
2023/03/13 04:35:31;;;;;;;16.40;5.00;;;6.70;99.90;;;;;;5031917;28;20499;-54
2023/03/13 04:38:00;;;;;;;14.47;5.43;;;6.70;99.90;;;;;;5052218;28;20465;-53
2023/03/13 04:40:26;;;;;;;27.33;5.43;;;6.70;99.90;;;;;;5051618;28;20649;-54
2023/03/13 04:42:53;;;;;;;17.30;4.20;;;6.70;99.90;;;;;;5052162;28;20483;-54
2023/03/13 04:45:21;;;;;;;19.03;5.40;;;6.70;99.90;;;;;;5053612;28;20450;-54
2023/03/13 04:47:47;;;;;;;21.97;4.53;;;6.80;99.90;;;;;;5050861;28;20467;-58
2023/03/13 04:50:14;;;;;;;19.37;5.40;;;6.80;99.90;;;;;;5035697;28;20462;-53
2023/03/13 04:52:40;;;;;;;16.87;4.33;;;6.80;99.90;;;;;;5030766;28;20505;-53
2023/03/13 04:55:08;;;;;;;24.17;5.93;;;6.70;99.90;;;;;;5034567;28;20501;-52
2023/03/13 04:57:35;;;;;;;15.77;4.33;;;6.70;99.90;;;;;;5034937;28;20482;-54
2023/03/13 05:00:03;;;;;;;24.90;5.40;;;6.80;99.90;;;;;;5034847;28;20903;-52
2023/03/13 05:02:31;;;;;;;19.10;4.90;;;6.70;99.90;;;;;;5033289;28;20569;-53
2023/03/13 05:04:58;;;;;;;25.17;5.43;;;6.70;99.90;;;;;;5031842;28;20462;-53
2023/03/13 05:07:25;;;;;;;13.30;4.40;;;6.80;99.90;;;;;;5034134;28;21030;-53
2023/03/13 05:09:51;;;;;;;22.37;5.47;;;6.70;99.90;;;;;;5033483;28;20539;-53
2023/03/13 05:12:18;;;;;;;11.60;4.40;;;6.80;99.90;;;;;;5035054;28;20455;-55
2023/03/13 05:14:44;;;;;;;17.77;6.00;;;6.80;99.90;;;;;;5035009;28;20491;-53
2023/03/13 05:17:11;;;;;;;14.20;4.70;;;6.70;99.90;;;;;;5029835;28;20965;-53
2023/03/13 05:19:39;;;;;;;16.60;5.00;;;6.80;99.90;;;;;;5032617;28;20560;-54
2023/03/13 05:22:05;;;;;;;15.80;4.60;;;6.70;99.90;;;;;;5024170;28;21005;-53
2023/03/13 05:24:32;;;;;;;19.87;6.33;;;6.80;99.90;;;;;;5033238;28;20529;-53
2023/03/13 05:26:59;;;;;;;16.70;5.10;;;6.80;99.90;;;;;;5032858;28;20463;-53
2023/03/13 05:29:25;;;;;;;22.23;5.37;;;6.80;99.90;;;;;;5031280;28;20524;-53
2023/03/13 05:31:52;;;;;;;12.47;4.90;;;6.80;99.90;;;;;;5030973;28;20529;-56
2023/03/13 05:34:19;;;;;;;17.17;4.60;;;6.80;99.90;;;;;;5037143;28;20505;-54
2023/03/13 05:36:47;;;;;;;16.83;5.93;;;6.80;99.90;;;;;;5035728;28;20815;-54
2023/03/13 05:39:13;;;;;;;16.87;5.30;;;6.80;99.90;;;;;;5032082;28;20584;-54
2023/03/13 05:41:40;;;;;;;35.33;7.83;;;6.80;99.90;;;;;;5029541;28;20514;-54
2023/03/13 05:44:06;;;;;;;15.27;6.07;;;6.80;99.90;;;;;;5033460;28;20505;-53
2023/03/13 05:46:33;;;;;;;19.87;6.23;;;6.80;99.90;;;;;;5032984;28;20459;-53
2023/03/13 05:49:00;;;;;;;24.00;6.70;;;6.80;99.90;;;;;;5034612;28;20479;-53
2023/03/13 05:51:26;;;;;;;24.90;6.30;;;6.80;99.90;;;;;;5033690;28;20502;-53
2023/03/13 05:53:54;;;;;;;23.00;6.10;;;6.80;99.90;;;;;;5037555;28;20493;-58
2023/03/13 05:56:21;;;;;;;20.53;6.60;;;6.80;99.90;;;;;;5046862;28;20464;-53
2023/03/13 05:58:47;;;;;;;18.33;5.53;;;6.80;99.90;;;;;;5045179;28;20483;-54
2023/03/13 06:01:14;;;;;;;23.50;6.87;;;6.90;99.90;;;;;;5036695;28;20453;-53
2023/03/13 06:03:41;;;;;;;15.27;4.60;;;6.80;99.90;;;;;;5047519;28;20538;-53
2023/03/13 06:06:07;;;;;;;18.83;6.00;;;6.80;99.90;;;;;;5036567;28;20514;-52
2023/03/13 06:08:34;;;;;;;21.07;5.10;;;6.90;99.90;;;;;;5031365;28;20861;-53
2023/03/13 06:11:03;;;;;;;18.20;5.60;;;6.90;99.90;;;;;;5028073;28;20553;-51
2023/03/13 06:13:30;;;;;;;18.73;4.63;;;6.90;99.90;;;;;;5028465;28;20463;-54
2023/03/13 06:15:57;;;;;;;25.40;5.00;;;6.90;99.90;;;;;;5030108;28;20494;-54
2023/03/13 06:18:24;;;;;;;23.73;5.50;;;6.90;99.90;;;;;;5029468;28;20540;-54
2023/03/13 06:20:56;;;;;;;20.53;5.00;;;7.00;99.90;;;;;;5031098;28;20575;-53
2023/03/13 06:23:23;;;;;;;22.23;4.93;;;7.00;99.90;;;;;;5023916;28;20535;-53
2023/03/13 06:25:50;;;;;;;21.17;5.60;;;7.00;99.90;;;;;;5029371;28;20506;-52
2023/03/13 06:28:17;;;;;;;18.13;5.13;;;7.00;99.90;;;;;;5030665;28;20491;-52
2023/03/13 06:30:44;;;;;;;14.80;4.23;;;7.00;99.90;;;;;;5032490;28;20525;-53
2023/03/13 06:33:11;;;;;;;20.93;4.70;;;7.00;99.90;;;;;;5032495;28;20470;-53
2023/03/13 06:35:40;;;;;;;18.93;5.00;;;7.00;99.90;;;;;;5029248;28;20471;-53
2023/03/13 06:38:08;;;;;;;20.77;4.60;;;7.00;99.90;;;;;;5026105;28;20488;-53
2023/03/13 06:40:34;;;;;;;22.60;5.10;;;7.10;99.90;;;;;;5022481;28;20491;-52
2023/03/13 06:43:01;;;;;;;20.37;4.00;;;7.10;99.90;;;;;;5030039;28;20954;-53
2023/03/13 06:45:29;;;;;;;20.40;4.83;;;7.10;99.90;;;;;;5022610;28;20502;-53
2023/03/13 06:47:55;;;;;;;15.73;4.97;;;7.10;99.90;;;;;;5024864;28;20463;-53
2023/03/13 06:50:22;;;;;;;14.63;4.40;;;7.10;99.90;;;;;;5024136;28;20521;-52
2023/03/13 06:52:49;;;;;;;13.63;4.43;;;7.20;99.90;;;;;;5024442;28;20842;-53
2023/03/13 06:55:16;;;;;;;16.73;5.63;;;7.20;99.90;;;;;;5019782;28;20499;-53
2023/03/13 06:57:42;;;;;;;27.23;4.57;;;7.20;99.90;;;;;;5024575;28;20532;-53
2023/03/13 07:00:11;;;;;;;18.67;4.93;;;7.30;99.90;;;;;;5027193;28;20549;-52
2023/03/13 07:02:39;;;;;;;19.83;4.20;;;7.30;99.90;;;;;;5020154;28;21058;-52
2023/03/13 07:05:07;;;;;;;18.70;4.40;;;7.30;99.90;;;;;;5024355;28;20491;-53
2023/03/13 07:07:34;;;;;;;18.87;5.10;;;7.30;99.90;;;;;;5027113;28;20554;-53
2023/03/13 07:10:01;;;;;;;14.47;5.00;;;7.30;99.90;;;;;;5027029;28;20494;-53
2023/03/13 07:12:27;;;;;;;17.97;4.80;;;7.30;99.90;;;;;;5016571;28;20549;-53
2023/03/13 07:14:54;;;;;;;20.80;5.40;;;7.30;99.90;;;;;;5025335;28;20502;-53
2023/03/13 07:17:20;;;;;;;25.00;5.37;;;7.30;99.90;;;;;;5028174;28;20463;-53
2023/03/13 07:19:48;;;;;;;25.07;5.80;;;7.30;99.90;;;;;;5021839;28;20495;-54
2023/03/13 07:22:15;;;;;;;15.67;5.27;;;7.30;99.90;;;;;;5029316;28;20511;-53
2023/03/13 07:24:42;;;;;;;18.80;4.60;;;7.30;99.90;;;;;;5026392;28;20500;-54
2023/03/13 07:27:08;;;;;;;17.63;4.20;;;7.30;99.90;;;;;;5024125;28;20540;-53
2023/03/13 07:29:35;;;;;;;15.77;5.10;;;7.30;99.90;;;;;;5026574;28;20876;-53
2023/03/13 07:32:01;;;;;;;26.20;5.40;;;7.30;99.90;;;;;;5026688;28;20487;-53
2023/03/13 07:34:28;;;;;;;23.17;5.63;;;7.30;99.90;;;;;;5022066;28;20487;-53
2023/03/13 07:36:56;;;;;;;27.93;5.70;;;7.40;99.90;;;;;;5029994;28;20498;-53
2023/03/13 07:39:23;;;;;;;18.40;5.23;;;7.40;99.90;;;;;;5041672;28;20463;-52
2023/03/13 07:41:49;;;;;;;20.57;4.33;;;7.50;99.90;;;;;;5035923;28;20463;-53
2023/03/13 07:44:16;;;;;;;12.63;4.63;;;7.50;99.90;;;;;;5020956;28;20486;-53
2023/03/13 07:46:42;;;;;;;24.00;5.20;;;7.50;99.90;;;;;;5028899;28;20508;-53
2023/03/13 07:49:09;;;;;;;13.80;4.10;;;7.60;99.90;;;;;;5029777;28;20471;-53
2023/03/13 07:51:36;;;;;;;25.03;5.23;;;7.60;99.90;;;;;;5029595;28;20593;-52
2023/03/13 07:54:04;;;;;;;19.50;4.93;;;7.60;99.90;;;;;;5025015;28;20514;-52
2023/03/13 07:56:30;;;;;;;16.27;4.33;;;7.70;99.90;;;;;;5028413;28;20478;-53
2023/03/13 07:58:57;;;;;;;27.90;6.37;;;7.70;99.90;;;;;;5031354;28;20556;-52
2023/03/13 08:01:26;;;;;;;15.67;6.93;;;7.70;99.90;;;;;;5029214;28;20524;-53
2023/03/13 08:03:54;;;;;;;26.83;5.23;;;7.70;99.90;;;;;;5031579;28;20514;-53
2023/03/13 08:06:23;;;;;;;24.07;6.13;;;7.80;99.90;;;;;;5028467;28;20467;-53
2023/03/13 08:08:50;;;;;;;19.80;5.37;;;7.80;99.90;;;;;;5030542;28;20482;-53
2023/03/13 08:11:20;;;;;;;14.23;4.43;;;7.80;99.90;;;;;;5055034;23;21091;-53
2023/03/13 08:13:48;;;;;;;18.77;5.00;;;7.80;99.90;;;;;;5068079;28;20518;-53
2023/03/13 08:16:17;;;;;;;21.27;4.60;;;7.80;99.90;;;;;;5069827;28;20457;-53
2023/03/13 08:18:45;;;;;;;22.27;5.47;;;7.80;99.90;;;;;;5071561;28;20546;-53
2023/03/13 08:21:13;;;;;;;22.07;5.27;;;7.80;99.90;;;;;;5067091;28;20505;-52
2023/03/13 08:23:40;;;;;;;28.07;4.93;;;7.80;99.90;;;;;;5072127;28;20536;-52
2023/03/13 08:26:08;;;;;;;20.57;5.20;;;7.80;99.90;;;;;;5070246;28;21042;-52
2023/03/13 08:28:37;;;;;;;17.90;4.03;;;7.80;99.90;;;;;;5074344;28;20504;-52
2023/03/13 08:31:08;;;;;;;13.67;3.77;;;7.90;99.90;;;;;;5070272;28;20531;-53
2023/03/13 08:33:35;;;;;;;11.80;3.80;;;7.90;99.90;;;;;;5062694;28;20495;-52
2023/03/13 08:36:10;;;;;;;17.17;4.87;;;7.90;99.90;;;;;;5073487;28;20954;-52
2023/03/13 08:38:37;;;;;;;20.40;4.77;;;7.90;99.90;;;;;;5068888;28;20586;-52
2023/03/13 08:41:04;;;;;;;15.63;4.73;;;7.90;99.90;;;;;;5073443;28;20833;-52
2023/03/13 08:43:30;;;;;;;23.63;6.03;;;7.90;99.90;;;;;;5064820;28;20542;-52
2023/03/13 08:45:58;;;;;;;17.30;4.23;;;7.90;99.90;;;;;;5068256;28;20493;-52
2023/03/13 08:48:25;;;;;;;11.73;4.10;;;7.90;99.90;;;;;;5070728;28;20497;-52
2023/03/13 08:51:00;;;;;;;8.67;3.30;;;8.00;99.90;;;;;;5074275;28;20496;-52
2023/03/13 08:53:27;;;;;;;16.37;4.67;;;8.00;99.90;;;;;;5071472;28;20453;-52
2023/03/13 08:55:54;;;;;;;17.47;4.00;;;8.00;99.90;;;;;;5070200;28;20799;-52
2023/03/13 08:58:20;;;;;;;13.83;3.90;;;8.00;87.60;;;;;;5072050;28;20488;-52
2023/03/13 09:00:47;;;;;;;14.00;4.30;;;8.10;98.20;;;;;;5070062;28;20893;-52
2023/03/13 09:03:16;;;;;;;16.63;3.80;;;8.20;99.90;;;;;;5066412;28;20478;-53
2023/03/13 09:05:44;;;;;;;14.87;4.50;;;8.20;99.90;;;;;;5068448;28;20453;-53
2023/03/13 09:08:12;;;;;;;27.93;4.63;;;8.20;99.90;;;;;;5068709;28;20453;-51
2023/03/13 09:10:38;;;;;;;16.63;4.00;;;8.30;99.90;;;;;;5067018;28;20511;-52
2023/03/13 09:13:05;;;;;;;15.73;4.33;;;8.30;99.90;;;;;;5072565;28;20797;-52
2023/03/13 09:15:31;;;;;;;13.23;3.83;;;8.40;99.90;;;;;;5070804;28;20493;-52
2023/03/13 09:17:58;;;;;;;15.60;4.73;;;8.40;99.90;;;;;;5071366;28;20550;-52
2023/03/13 09:20:26;;;;;;;10.77;4.17;;;8.40;99.90;;;;;;5068951;28;20516;-52
2023/03/13 09:22:53;;;;;;;20.47;5.40;;;8.40;99.90;;;;;;5062045;28;20563;-52
2023/03/13 09:25:19;;;;;;;20.27;4.30;;;8.50;99.90;;;;;;5058107;28;20489;-52
2023/03/13 09:27:46;;;;;;;10.73;3.20;;;8.50;99.90;;;;;;5059055;28;20486;-52
2023/03/13 09:30:13;;;;;;;15.40;3.67;;;8.50;99.90;;;;;;5059116;28;21356;-51
2023/03/13 09:32:40;;;;;;;15.20;3.60;;;8.50;99.90;;;;;;5062081;28;20935;-52
2023/03/13 09:35:07;;;;;;;9.13;3.43;;;8.50;99.90;;;;;;5057473;28;20562;-51
2023/03/13 09:37:35;;;;;;;14.57;3.80;;;8.60;99.90;;;;;;5059296;28;20986;-51
2023/03/13 09:40:01;;;;;;;16.33;4.00;;;8.60;99.90;;;;;;5060806;28;20489;-52
2023/03/13 09:42:36;;;;;;;11.93;3.40;;;8.60;99.90;;;;;;5059510;28;21039;-52
2023/03/13 09:45:08;;;;;;;6.87;2.77;;;8.70;99.90;;;;;;5059841;28;20497;-52
2023/03/13 09:47:42;;;;;;;11.30;3.50;;;8.70;99.90;;;;;;5060175;28;20490;-52
2023/03/13 09:50:14;;;;;;;14.00;3.67;;;8.70;99.90;;;;;;5057983;28;20595;-52
2023/03/13 09:52:42;;;;;;;11.10;4.33;;;8.70;99.90;;;;;;5063609;28;20473;-53
2023/03/13 09:55:19;;;;;;;13.23;4.03;;;8.70;99.90;;;;;;5060498;28;20481;-52
2023/03/13 09:57:52;;;;;;;15.50;3.90;;;8.80;99.90;;;;;;5057833;28;20953;-51
2023/03/13 10:00:23;;;;;;;11.10;3.67;;;8.80;99.90;;;;;;5058722;28;20458;-52
2023/03/13 10:02:56;;;;;;;10.33;4.40;;;8.80;99.90;;;;;;5064724;28;20897;-52
2023/03/13 10:05:25;;;;;;;7.53;3.23;;;8.80;99.90;;;;;;5062562;28;20487;-52
2023/03/13 10:07:57;;;;;;;11.07;3.50;;;8.80;99.90;;;;;;5056743;28;20490;-52
2023/03/13 10:10:34;;;;;;;13.10;4.10;;;8.90;99.90;;;;;;5058012;28;20492;-52
2023/03/13 10:13:12;;;;;;;15.60;4.10;;;8.90;99.90;;;;;;5059228;28;20473;-52
2023/03/13 10:15:46;;;;;;;14.20;4.00;;;9.00;99.90;;;;;;5054494;28;20494;-52
2023/03/13 10:18:18;;;;;;;10.20;3.23;;;9.00;99.90;;;;;;5056829;28;20497;-52
2023/03/13 10:20:48;;;;;;;11.10;3.80;;;9.00;99.90;;;;;;5057714;28;20495;-52
2023/03/13 10:23:21;;;;;;;10.03;3.40;;;9.10;99.90;;;;;;5057133;28;21006;-52
2023/03/13 10:25:48;;;;;;;11.77;3.47;;;9.20;99.90;;;;;;5053948;28;20840;-52
2023/03/13 10:28:18;;;;;;;11.60;4.00;;;9.20;99.90;;;;;;5056633;28;20485;-52
2023/03/13 10:30:48;;;;;;;13.70;4.60;;;9.30;99.90;;;;;;5059521;28;20473;-52
2023/03/13 10:33:20;;;;;;;16.77;3.90;;;9.40;99.90;;;;;;5061774;28;20462;-52
2023/03/13 10:35:58;;;;;;;12.93;3.60;;;9.40;99.90;;;;;;5061770;28;20501;-52
2023/03/13 10:38:26;;;;;;;15.23;3.67;;;9.50;99.90;;;;;;5058430;28;20493;-52
2023/03/13 10:40:58;;;;;;;13.37;3.87;;;9.70;99.90;;;;;;5055723;28;20505;-56
2023/03/13 10:43:26;;;;;;;10.73;3.83;;;9.80;99.90;;;;;;5059942;28;20487;-52
2023/03/13 10:45:53;;;;;;;10.10;3.23;;;9.90;99.90;;;;;;5056420;28;20564;-52
2023/03/13 10:48:22;;;;;;;7.87;3.00;;;10.00;99.90;;;;;;5061040;28;20481;-52
2023/03/13 10:50:50;;;;;;;14.80;3.43;;;10.10;99.90;;;;;;5059644;28;20505;-52
2023/03/13 10:53:24;;;;;;;10.27;3.43;;;10.10;99.90;;;;;;5066279;28;20465;-52
2023/03/13 10:55:54;;;;;;;14.03;3.50;;;10.20;99.90;;;;;;5056610;28;20538;-52
2023/03/13 10:58:33;;;;;;;6.97;3.00;;;10.30;99.90;;;;;;5058251;28;20978;-51
2023/03/13 11:01:15;;;;;;;15.20;3.83;;;10.40;99.90;;;;;;5056992;28;20500;-52
2023/03/13 11:03:43;;;;;;;13.00;3.30;;;10.70;99.90;;;;;;5060130;28;21099;-52
2023/03/13 11:06:27;;;;;;;5.70;3.27;;;10.90;99.90;;;;;;5067343;28;20516;-52
2023/03/13 11:09:12;;;;;;;7.43;2.80;;;11.30;99.90;;;;;;5060792;28;20931;-52
2023/03/13 11:11:48;;;;;;;10.70;2.60;;;11.50;87.30;;;;;;5066214;28;20640;-52
2023/03/13 11:14:18;;;;;;;6.00;2.43;;;11.70;25.40;;;;;;5060072;28;20468;-51
2023/03/13 11:16:50;;;;;;;5.43;2.43;;;11.90;32.30;;;;;;5052316;28;20506;-52
2023/03/13 11:19:29;;;;;;;6.53;2.40;;;11.70;35.70;;;;;;5064213;28;20466;-52
2023/03/13 11:22:07;;;;;;;4.17;2.40;;;11.90;29.30;;;;;;5066027;28;21039;-51
2023/03/13 11:24:42;;;;;;;5.30;2.83;;;11.70;50.20;;;;;;5059788;28;20574;-52
2023/03/13 11:27:19;;;;;;;5.20;2.10;;;11.60;34.30;;;;;;5064937;28;20492;-52
2023/03/13 11:29:57;;;;;;;4.30;2.70;;;11.50;26.20;;;;;;5067442;28;20504;-52
2023/03/13 11:32:31;;;;;;;7.80;3.20;;;11.50;32.50;;;;;;5068867;28;20607;-51
2023/03/13 11:35:01;;;;;;;2.30;2.10;;;11.60;27.40;;;;;;5066023;28;20493;-52
2023/03/13 11:37:33;;;;;;;4.13;2.50;;;11.60;24.20;;;;;;5054738;28;20485;-52
2023/03/13 11:40:11;;;;;;;5.27;2.33;;;11.60;31.00;;;;;;5071306;28;20472;-52
2023/03/13 11:42:56;;;;;;;7.47;3.47;;;11.70;34.50;;;;;;5064586;28;20543;-52
2023/03/13 11:45:45;;;;;;;4.00;2.07;;;11.70;36.20;;;;;;5069931;28;20492;-52
2023/03/13 11:48:25;;;;;;;4.87;1.87;;;11.70;36.80;;;;;;5054129;28;20466;-52
2023/03/13 11:50:58;;;;;;;4.20;1.80;;;11.80;41.60;;;;;;5064238;28;20513;-52
2023/03/13 11:53:39;;;;;;;3.67;2.10;;;11.80;50.40;;;;;;5069107;28;20530;-52
2023/03/13 11:56:12;;;;;;;6.07;2.10;;;11.90;45.30;;;;;;5064220;28;20449;-52
2023/03/13 11:58:50;;;;;;;4.40;2.13;;;12.00;48.60;;;;;;5070604;28;20961;-52
2023/03/13 12:01:19;;;;;;;3.87;2.17;;;12.20;62.50;;;;;;5070822;28;20489;-52
2023/03/13 12:03:56;;;;;;;2.60;1.80;;;12.40;69.40;;;;;;5070754;28;20503;-52
2023/03/13 12:06:28;;;;;;;5.23;2.10;;;12.40;75.20;;;;;;5070991;28;20480;-52
2023/03/13 12:08:58;;;;;;;2.60;1.93;;;12.60;87.30;;;;;;5067095;28;21051;-52
2023/03/13 12:11:28;;;;;;;2.90;1.83;;;12.80;92.40;;;;;;5063511;28;20517;-52
2023/03/13 12:14:00;;;;;;;6.07;1.90;;;12.80;99.90;;;;;;5068058;28;20485;-52
2023/03/13 12:16:39;;;;;;;3.03;1.77;;;12.90;99.90;;;;;;5066606;28;20539;-53
2023/03/13 12:19:08;;;;;;;2.53;1.50;;;13.00;99.90;;;;;;5068913;28;20544;-53
2023/03/13 12:21:38;;;;;;;2.70;1.60;;;12.90;99.90;;;;;;5065525;28;20500;-52
2023/03/13 12:24:11;;;;;;;3.30;1.63;;;12.90;99.90;;;;;;5066168;28;20994;-52
2023/03/13 12:26:42;;;;;;;1.77;1.50;;;12.90;99.90;;;;;;5067211;28;20493;-52
2023/03/13 12:29:17;;;;;;;2.23;1.47;;;13.00;99.90;;;;;;5064488;28;20497;-52
2023/03/13 12:31:48;;;;;;;2.47;1.17;;;13.10;99.90;;;;;;5065640;28;20477;-52
2023/03/13 12:34:20;;;;;;;3.53;1.60;;;13.10;99.90;;;;;;5066558;28;20540;-52
2023/03/13 12:36:51;;;;;;;3.40;1.40;;;13.10;99.90;;;;;;5069002;28;20488;-52
2023/03/13 12:39:26;;;;;;;3.40;1.50;;;13.10;99.90;;;;;;5068157;28;20491;-52
2023/03/13 12:42:07;;;;;;;2.13;1.90;;;13.30;99.90;;;;;;5066737;28;20492;-52
2023/03/13 12:44:35;;;;;;;4.17;1.63;;;13.50;99.90;;;;;;5062492;28;20568;-53
2023/03/13 12:47:09;;;;;;;3.47;1.83;;;13.80;99.90;;;;;;5064691;28;20488;-52
2023/03/13 12:50:08;;;;;;;4.63;1.57;;;13.80;99.90;;;;;;5068051;28;20449;-52
2023/03/13 12:52:56;;;;;;;4.33;1.43;;;14.00;99.90;;;;;;5067011;28;20465;-52
2023/03/13 12:55:48;;;;;;;2.20;1.20;;;14.20;99.90;;;;;;5066957;28;20488;-53
2023/03/13 12:58:29;;;;;;;2.83;1.30;;;14.10;99.90;;;;;;5073064;28;20978;-51